Time;durP1;ratioP1;P1;durP2;ratioP2;P2;SDS_P1;SDS_P2;PMS_P1;PMS_P2;Temp;Humidity;BMP_temperature;BMP_pressure;BME280_temperature;BME280_humidity;BME280_pressure;Samples;Min_cycle;Max_cycle;Signal;HPM_P1;HPM_P2
2023/06/17 00:00:22;;;;;;;11.95;6.43;;;;;;;;;;5021455;28;20042;-59
2023/06/17 00:02:50;;;;;;;10.10;6.53;;;;;;;;;;5012576;28;20050;-58
2023/06/17 00:05:16;;;;;;;12.35;6.78;;;;;;;;;;5012101;28;20057;-58
2023/06/17 00:07:43;;;;;;;11.60;6.43;;;;;;;;;;5020169;28;20045;-58
2023/06/17 00:10:10;;;;;;;8.50;6.03;;;;;;;;;;5010804;28;20029;-58
2023/06/17 00:12:37;;;;;;;12.52;6.10;;;;;;;;;;5014579;28;20034;-58
2023/06/17 00:15:05;;;;;;;8.73;6.28;;;;;;;;;;5020573;28;20045;-58
2023/06/17 00:17:31;;;;;;;10.60;6.72;;;;;;;;;;5004791;28;20412;-58
2023/06/17 00:20:07;;;;;;;10.05;6.85;;;;;;;;;;5005496;28;20041;-58
2023/06/17 00:22:35;;;;;;;8.25;6.32;;;;;;;;;;5013490;28;20033;-58
2023/06/17 00:25:02;;;;;;;10.10;6.47;;;;;;;;;;5003501;28;20030;-58
2023/06/17 00:27:29;;;;;;;10.43;6.43;;;;;;;;;;5002351;28;20033;-57
2023/06/17 00:29:59;;;;;;;9.93;6.22;;;;;;;;;;5019865;28;20049;-57
2023/06/17 00:32:30;;;;;;;7.93;5.80;;;;;;;;;;5007193;28;20530;-57
2023/06/17 00:34:56;;;;;;;9.75;5.80;;;;;;;;;;5006393;28;20060;-57
2023/06/17 00:37:23;;;;;;;9.02;6.03;;;;;;;;;;5003462;28;20030;-58
2023/06/17 00:39:49;;;;;;;10.07;6.30;;;;;;;;;;5011494;28;20411;-58
2023/06/17 00:42:15;;;;;;;13.23;6.30;;;;;;;;;;5014269;28;20380;-58
2023/06/17 00:44:42;;;;;;;8.35;5.65;;;;;;;;;;5013051;28;20038;-58
2023/06/17 00:47:10;;;;;;;10.48;5.93;;;;;;;;;;5005609;28;20037;-58
2023/06/17 00:49:37;;;;;;;9.55;6.28;;;;;;;;;;5010522;28;20037;-58
2023/06/17 00:52:07;;;;;;;8.88;5.60;;;;;;;;;;5000511;28;20045;-58
2023/06/17 00:54:37;;;;;;;11.20;5.95;;;;;;;;;;4998668;28;20508;-58
2023/06/17 00:57:13;;;;;;;7.68;5.72;;;;;;;;;;5019045;28;20048;-58
2023/06/17 00:59:42;;;;;;;8.18;5.78;;;;;;;;;;5005758;28;20529;-58
2023/06/17 01:02:09;;;;;;;11.93;6.15;;;;;;;;;;4992813;28;20046;-58
2023/06/17 01:04:42;;;;;;;12.05;5.93;;;;;;;;;;4996734;28;20550;-58
2023/06/17 01:07:35;;;;;;;8.30;5.60;;;;;;;;;;5010360;28;20053;-58
2023/06/17 01:10:06;;;;;;;7.10;5.25;;;;;;;;;;5018460;28;20048;-58
2023/06/17 01:12:36;;;;;;;7.78;5.70;;;;;;;;;;5005915;28;20507;-58
2023/06/17 01:15:04;;;;;;;7.97;6.07;;;;;;;;;;5003673;28;20053;-58
2023/06/17 01:17:31;;;;;;;9.40;6.30;;;;;;;;;;5004589;28;20033;-58
2023/06/17 01:19:58;;;;;;;10.10;6.32;;;;;;;;;;5014593;28;20054;-58
2023/06/17 01:22:26;;;;;;;8.15;5.68;;;;;;;;;;4994004;28;20041;-58
2023/06/17 01:29:07;;;;;;;9.27;5.70;;;;;;;;;;5000153;28;20384;-58
2023/06/17 01:31:34;;;;;;;9.27;5.95;;;;;;;;;;5004986;28;20090;-58
2023/06/17 01:34:01;;;;;;;11.18;5.88;;;;;;;;;;5005024;28;20038;-58
2023/06/17 01:36:30;;;;;;;15.18;5.57;;;;;;;;;;4998633;28;20034;-58
2023/06/17 01:39:04;;;;;;;7.85;5.88;;;;;;;;;;5018091;28;20226;-58
2023/06/17 01:41:38;;;;;;;9.70;5.80;;;;;;;;;;5005022;28;20504;-58
2023/06/17 01:44:07;;;;;;;11.18;5.78;;;;;;;;;;5008503;28;20403;-58
2023/06/17 01:46:35;;;;;;;7.97;5.50;;;;;;;;;;5018963;28;20045;-57
2023/06/17 01:49:02;;;;;;;12.27;5.97;;;;;;;;;;5003662;28;20025;-57
2023/06/17 01:51:28;;;;;;;8.95;5.68;;;;;;;;;;5007282;28;20041;-57
2023/06/17 01:53:54;;;;;;;8.90;5.88;;;;;;;;;;5005414;28;20049;-57
2023/06/17 01:56:21;;;;;;;10.18;6.07;;;;;;;;;;4993132;28;20042;-57
2023/06/17 01:58:47;;;;;;;9.27;6.20;;;;;;;;;;5000874;28;20042;-57
2023/06/17 02:01:14;;;;;;;9.20;5.88;;;;;;;;;;5001016;28;20042;-56
2023/06/17 02:03:42;;;;;;;8.75;6.40;;;;;;;;;;5006330;28;20491;-59
2023/06/17 02:06:09;;;;;;;9.27;6.68;;;;;;;;;;5009729;28;20030;-58
2023/06/17 02:08:35;;;;;;;7.65;6.00;;;;;;;;;;5005697;28;20053;-58
2023/06/17 02:11:02;;;;;;;8.32;5.75;;;;;;;;;;4993570;28;20042;-59
2023/06/17 02:13:28;;;;;;;7.80;5.78;;;;;;;;;;5015985;28;20040;-58
2023/06/17 02:15:55;;;;;;;9.75;5.65;;;;;;;;;;5003550;28;20049;-58
2023/06/17 02:18:22;;;;;;;9.95;6.30;;;;;;;;;;5014575;28;20041;-58
2023/06/17 02:20:48;;;;;;;8.27;5.90;;;;;;;;;;5008860;28;20041;-59
2023/06/17 02:23:15;;;;;;;11.95;6.38;;;;;;;;;;5002301;28;20077;-59
2023/06/17 02:25:41;;;;;;;8.68;6.35;;;;;;;;;;5003939;28;20046;-59
2023/06/17 02:28:07;;;;;;;10.23;6.53;;;;;;;;;;5011964;28;20026;-59
2023/06/17 02:30:34;;;;;;;11.02;6.05;;;;;;;;;;5008923;28;20061;-59
2023/06/17 02:33:03;;;;;;;11.02;6.68;;;;;;;;;;5004600;28;20061;-58
2023/06/17 02:35:30;;;;;;;8.55;5.97;;;;;;;;;;5007713;28;20040;-58
2023/06/17 02:37:56;;;;;;;11.02;6.30;;;;;;;;;;5024868;28;20034;-58
2023/06/17 02:40:23;;;;;;;10.95;6.80;;;;;;;;;;5000860;28;20535;-58
2023/06/17 02:42:51;;;;;;;9.00;6.57;;;;;;;;;;4992991;28;20038;-58
2023/06/17 02:45:17;;;;;;;9.63;6.72;;;;;;;;;;5015451;28;20057;-57
2023/06/17 02:47:46;;;;;;;12.02;7.07;;;;;;;;;;5010367;28;20038;-58
2023/06/17 02:50:12;;;;;;;9.77;6.63;;;;;;;;;;5011627;28;20038;-58
2023/06/17 02:52:38;;;;;;;11.63;6.32;;;;;;;;;;5005128;28;20542;-58
2023/06/17 02:55:06;;;;;;;10.77;6.80;;;;;;;;;;5005989;28;20495;-58
2023/06/17 02:57:32;;;;;;;10.82;7.38;;;;;;;;;;5007033;28;20060;-58
2023/06/17 03:00:00;;;;;;;10.07;7.05;;;;;;;;;;5001494;28;20737;-58
2023/06/17 03:02:26;;;;;;;11.45;7.68;;;;;;;;;;5015470;28;20049;-58
2023/06/17 03:04:53;;;;;;;11.98;7.40;;;;;;;;;;5011221;28;20038;-58
2023/06/17 03:07:24;;;;;;;9.70;7.30;;;;;;;;;;4993672;28;20038;-58
2023/06/17 03:09:50;;;;;;;10.90;6.82;;;;;;;;;;4990025;28;20034;-58
2023/06/17 03:12:17;;;;;;;8.73;6.28;;;;;;;;;;5004078;28;20058;-58
2023/06/17 03:14:43;;;;;;;9.88;6.65;;;;;;;;;;4990698;28;20415;-58
2023/06/17 03:17:14;;;;;;;12.02;6.50;;;;;;;;;;4995636;28;20057;-57
2023/06/17 03:19:40;;;;;;;9.77;6.43;;;;;;;;;;5000905;28;20388;-58
2023/06/17 03:22:06;;;;;;;11.20;6.40;;;;;;;;;;5006424;28;20399;-58
2023/06/17 03:24:35;;;;;;;9.83;6.07;;;;;;;;;;4995108;28;20060;-58
2023/06/17 03:27:01;;;;;;;8.82;6.03;;;;;;;;;;5009926;28;20065;-58
2023/06/17 03:29:30;;;;;;;10.07;6.35;;;;;;;;;;5006414;28;20509;-57
2023/06/17 03:31:57;;;;;;;11.98;6.20;;;;;;;;;;5005682;28;20034;-57
2023/06/17 03:34:25;;;;;;;8.20;6.47;;;;;;;;;;5009043;28;20487;-57
2023/06/17 03:36:52;;;;;;;8.77;6.25;;;;;;;;;;4999755;28;20037;-58
2023/06/17 03:39:18;;;;;;;11.60;6.95;;;;;;;;;;5019577;28;20494;-58
2023/06/17 03:41:45;;;;;;;9.13;6.05;;;;;;;;;;5007400;28;20510;-59
2023/06/17 03:44:11;;;;;;;9.50;6.40;;;;;;;;;;5000813;28;20049;-58
2023/06/17 03:46:38;;;;;;;8.85;6.22;;;;;;;;;;5018481;28;20411;-58
2023/06/17 03:49:04;;;;;;;14.95;6.68;;;;;;;;;;5003519;28;20046;-58
2023/06/17 03:51:31;;;;;;;14.07;6.88;;;;;;;;;;5002816;28;20431;-58
2023/06/17 03:53:58;;;;;;;10.80;6.40;;;;;;;;;;5003913;28;20034;-58
2023/06/17 03:56:26;;;;;;;8.90;6.28;;;;;;;;;;5006956;28;20395;-58
2023/06/17 03:58:53;;;;;;;11.00;6.63;;;;;;;;;;5012337;28;20038;-56
2023/06/17 04:01:20;;;;;;;9.50;6.25;;;;;;;;;;4996318;28;20041;-57
2023/06/17 04:03:46;;;;;;;10.02;6.82;;;;;;;;;;5019355;28;20435;-58
2023/06/17 04:06:13;;;;;;;11.68;6.57;;;;;;;;;;5013002;28;20525;-58
2023/06/17 04:08:39;;;;;;;10.95;6.53;;;;;;;;;;5016233;28;20053;-58
2023/06/17 04:11:05;;;;;;;10.23;6.65;;;;;;;;;;4989121;28;20567;-58
2023/06/17 04:13:33;;;;;;;10.60;6.70;;;;;;;;;;5004402;28;20069;-57
2023/06/17 04:16:00;;;;;;;12.77;6.47;;;;;;;;;;5014295;28;20034;-58
2023/06/17 04:18:28;;;;;;;10.27;6.60;;;;;;;;;;5009021;28;20391;-58
2023/06/17 04:20:56;;;;;;;10.82;6.78;;;;;;;;;;5011125;28;20069;-58
2023/06/17 04:23:26;;;;;;;10.88;7.07;;;;;;;;;;5016226;28;20395;-58
2023/06/17 04:25:56;;;;;;;9.50;6.80;;;;;;;;;;5012168;28;20057;-58
2023/06/17 04:28:23;;;;;;;10.32;6.95;;;;;;;;;;5017023;28;20125;-58
2023/06/17 04:30:51;;;;;;;9.85;7.10;;;;;;;;;;5018247;28;20044;-58
2023/06/17 04:33:18;;;;;;;10.95;6.93;;;;;;;;;;4993123;28;20510;-58
2023/06/17 04:35:47;;;;;;;11.32;7.15;;;;;;;;;;5012760;28;20041;-59
2023/06/17 04:38:14;;;;;;;11.13;7.30;;;;;;;;;;5021026;28;20048;-59
2023/06/17 04:40:41;;;;;;;11.02;7.15;;;;;;;;;;5012881;28;20057;-58
2023/06/17 04:43:09;;;;;;;10.43;7.22;;;;;;;;;;5002378;28;20049;-58
2023/06/17 04:45:36;;;;;;;14.30;7.40;;;;;;;;;;5004215;28;20418;-59
2023/06/17 04:48:06;;;;;;;13.13;7.28;;;;;;;;;;5016344;28;20376;-59
2023/06/17 04:50:33;;;;;;;11.55;8.10;;;;;;;;;;5003142;28;20050;-59
2023/06/17 04:53:05;;;;;;;24.17;12.68;;;;;;;;;;5005292;28;20065;-59
2023/06/17 04:55:36;;;;;;;22.42;11.52;;;;;;;;;;5003094;28;20537;-59
2023/06/17 04:58:03;;;;;;;13.48;8.98;;;;;;;;;;5020034;28;20041;-59
2023/06/17 05:00:50;;;;;;;25.10;13.50;;;;;;;;;;5009870;28;20065;-58
2023/06/17 05:03:20;;;;;;;18.38;11.05;;;;;;;;;;5009462;28;20402;-59
2023/06/17 05:05:47;;;;;;;18.48;9.82;;;;;;;;;;5018368;28;20507;-60
2023/06/17 05:08:13;;;;;;;12.73;6.95;;;;;;;;;;5020052;28;20049;-59
2023/06/17 05:10:40;;;;;;;10.10;6.80;;;;;;;;;;5004880;28;20061;-60
2023/06/17 05:13:06;;;;;;;12.13;8.20;;;;;;;;;;5011065;28;20050;-59
2023/06/17 05:15:33;;;;;;;17.02;9.23;;;;;;;;;;5016459;28;20526;-59
2023/06/17 05:17:59;;;;;;;13.65;8.30;;;;;;;;;;5020817;28;20053;-59
2023/06/17 05:20:26;;;;;;;18.13;10.63;;;;;;;;;;5011630;28;20472;-59
2023/06/17 05:22:52;;;;;;;13.68;8.57;;;;;;;;;;5010451;28;20057;-59
2023/06/17 05:25:19;;;;;;;11.75;8.23;;;;;;;;;;5009374;28;20411;-59
2023/06/17 05:27:45;;;;;;;14.80;8.80;;;;;;;;;;5009270;28;20029;-58
2023/06/17 05:30:12;;;;;;;18.27;9.93;;;;;;;;;;5020345;28;20040;-59
2023/06/17 05:32:41;;;;;;;15.20;8.80;;;;;;;;;;5010259;28;20442;-59
2023/06/17 05:35:07;;;;;;;14.25;9.38;;;;;;;;;;5017990;28;20033;-59
2023/06/17 05:37:34;;;;;;;15.45;8.95;;;;;;;;;;5029893;28;20049;-59
2023/06/17 05:40:02;;;;;;;16.02;9.63;;;;;;;;;;5012186;28;20045;-58
2023/06/17 05:42:29;;;;;;;17.73;9.52;;;;;;;;;;5008245;28;20041;-60
2023/06/17 05:44:55;;;;;;;18.92;10.10;;;;;;;;;;5012516;28;20542;-59
2023/06/17 05:47:21;;;;;;;16.50;9.68;;;;;;;;;;4997495;28;20041;-59
2023/06/17 05:49:48;;;;;;;15.25;9.18;;;;;;;;;;5004526;28;20030;-59
2023/06/17 05:52:14;;;;;;;18.65;10.18;;;;;;;;;;4996597;28;20042;-59
2023/06/17 05:54:41;;;;;;;19.63;10.73;;;;;;;;;;4992555;28;20034;-59
2023/06/17 05:57:07;;;;;;;15.63;10.15;;;;;;;;;;5012329;28;20057;-59
2023/06/17 05:59:33;;;;;;;19.05;10.65;;;;;;;;;;4994106;28;20046;-58
2023/06/17 06:02:00;;;;;;;21.95;10.52;;;;;;;;;;5009101;28;20040;-59
2023/06/17 06:04:26;;;;;;;17.63;10.30;;;;;;;;;;5004574;28;20049;-58
2023/06/17 06:06:53;;;;;;;18.55;10.48;;;;;;;;;;5003127;28;20491;-58
2023/06/17 06:09:20;;;;;;;16.67;11.02;;;;;;;;;;5000611;28;20038;-59
2023/06/17 06:11:47;;;;;;;24.27;12.95;;;;;;;;;;5019153;28;20033;-59
2023/06/17 06:14:14;;;;;;;21.13;13.02;;;;;;;;;;5020612;28;20049;-59
2023/06/17 06:16:40;;;;;;;20.00;12.02;;;;;;;;;;5000682;28;20042;-58
2023/06/17 06:19:06;;;;;;;19.73;11.40;;;;;;;;;;5003040;28;20053;-59
2023/06/17 06:21:32;;;;;;;18.23;11.27;;;;;;;;;;5006969;28;20045;-59
2023/06/17 06:23:59;;;;;;;17.88;9.82;;;;;;;;;;5007406;28;20050;-58
2023/06/17 06:26:29;;;;;;;17.95;10.30;;;;;;;;;;5007996;28;20467;-59
2023/06/17 06:28:56;;;;;;;16.05;10.05;;;;;;;;;;5008218;28;20026;-59
2023/06/17 06:31:22;;;;;;;15.93;10.05;;;;;;;;;;5007068;28;20419;-59
2023/06/17 06:33:49;;;;;;;17.95;10.27;;;;;;;;;;5007869;28;20060;-59
2023/06/17 06:36:16;;;;;;;20.52;10.52;;;;;;;;;;5017688;28;20046;-59
2023/06/17 06:38:43;;;;;;;17.90;10.32;;;;;;;;;;5012785;28;20588;-59
2023/06/17 06:41:09;;;;;;;17.95;10.48;;;;;;;;;;5011087;28;20061;-59
2023/06/17 06:43:40;;;;;;;18.00;9.80;;;;;;;;;;4997477;28;20053;-59
2023/06/17 06:46:14;;;;;;;18.70;10.75;;;;;;;;;;4998986;28;20050;-58
2023/06/17 06:48:40;;;;;;;16.27;10.18;;;;;;;;;;5007493;28;20133;-59
2023/06/17 06:51:06;;;;;;;18.70;10.05;;;;;;;;;;5009646;28;20030;-59
2023/06/17 06:53:32;;;;;;;16.75;9.38;;;;;;;;;;5010915;28;20050;-59
2023/06/17 06:55:58;;;;;;;19.33;9.93;;;;;;;;;;4993999;28;20046;-58
2023/06/17 06:58:26;;;;;;;18.40;10.00;;;;;;;;;;5022939;28;20042;-58
2023/06/17 07:00:52;;;;;;;16.25;10.38;;;;;;;;;;5011844;28;20049;-59
2023/06/17 07:03:18;;;;;;;20.40;10.50;;;;;;;;;;5011367;28;20044;-59
2023/06/17 07:05:44;;;;;;;19.70;10.90;;;;;;;;;;5021233;28;20038;-59
2023/06/17 07:08:11;;;;;;;18.88;10.80;;;;;;;;;;5007565;28;20046;-58
2023/06/17 07:10:39;;;;;;;18.35;10.55;;;;;;;;;;5013027;28;20411;-59
2023/06/17 07:13:07;;;;;;;26.40;10.65;;;;;;;;;;5010425;28;20048;-59
2023/06/17 07:15:33;;;;;;;16.55;9.82;;;;;;;;;;5010952;28;20536;-58
2023/06/17 07:18:00;;;;;;;19.85;11.00;;;;;;;;;;5012403;28;20056;-58
2023/06/17 07:20:26;;;;;;;18.42;11.15;;;;;;;;;;5011003;28;20038;-58
2023/06/17 07:22:54;;;;;;;22.02;11.25;;;;;;;;;;5015265;28;20033;-58
2023/06/17 07:25:20;;;;;;;29.42;10.20;;;;;;;;;;5019179;28;20415;-57
2023/06/17 07:27:47;;;;;;;20.02;10.45;;;;;;;;;;5015466;28;20046;-58
2023/06/17 07:30:14;;;;;;;24.10;11.20;;;;;;;;;;5011460;28;20056;-57
2023/06/17 07:32:40;;;;;;;19.17;11.00;;;;;;;;;;5009654;28;20050;-57
2023/06/17 07:35:09;;;;;;;19.83;11.95;;;;;;;;;;5016261;28;20045;-58
2023/06/17 07:37:36;;;;;;;16.95;11.57;;;;;;;;;;5021312;28;20372;-57
2023/06/17 07:40:06;;;;;;;22.08;11.70;;;;;;;;;;5017339;28;20033;-58
2023/06/17 07:42:32;;;;;;;23.70;11.52;;;;;;;;;;5013238;28;20456;-58
2023/06/17 07:44:58;;;;;;;19.85;12.65;;;;;;;;;;5010914;28;20045;-57
2023/06/17 07:47:24;;;;;;;23.00;12.32;;;;;;;;;;5011703;28;20061;-58
2023/06/17 07:49:50;;;;;;;20.35;12.82;;;;;;;;;;5019869;28;20472;-57
2023/06/17 07:52:19;;;;;;;19.67;12.52;;;;;;;;;;5013931;28;20042;-58
2023/06/17 07:54:47;;;;;;;24.33;13.75;;;;;;;;;;5019303;28;20037;-57
2023/06/17 07:57:14;;;;;;;23.73;13.13;;;;;;;;;;5012468;28;20046;-58
2023/06/17 07:59:41;;;;;;;19.02;12.52;;;;;;;;;;5012011;28;20528;-58
2023/06/17 08:02:08;;;;;;;23.38;13.10;;;;;;;;;;5010790;28;20041;-57
2023/06/17 08:04:34;;;;;;;21.45;13.35;;;;;;;;;;5019439;28;20061;-57
2023/06/17 08:07:01;;;;;;;20.63;12.73;;;;;;;;;;5012384;28;20049;-58
2023/06/17 08:09:27;;;;;;;23.70;12.15;;;;;;;;;;5012032;28;20046;-57
2023/06/17 08:11:53;;;;;;;21.15;13.27;;;;;;;;;;5011127;28;20071;-58
2023/06/17 08:14:19;;;;;;;25.10;13.32;;;;;;;;;;5012344;28;20049;-58
2023/06/17 08:16:45;;;;;;;23.33;13.05;;;;;;;;;;5018115;28;20048;-58
2023/06/17 08:19:12;;;;;;;19.80;12.75;;;;;;;;;;5013189;28;20076;-58
2023/06/17 08:21:41;;;;;;;26.58;12.82;;;;;;;;;;5011250;28;20042;-58
2023/06/17 08:24:18;;;;;;;21.13;12.70;;;;;;;;;;5012151;28;20046;-58
2023/06/17 08:26:45;;;;;;;24.20;12.70;;;;;;;;;;5011461;28;20034;-58
2023/06/17 08:29:15;;;;;;;23.25;13.15;;;;;;;;;;5007446;28;20033;-58
2023/06/17 08:31:45;;;;;;;24.75;13.65;;;;;;;;;;5009667;28;20050;-58
2023/06/17 08:34:12;;;;;;;21.80;12.85;;;;;;;;;;5010412;28;20049;-58
2023/06/17 08:36:41;;;;;;;20.77;13.05;;;;;;;;;;5011717;28;20045;-58
2023/06/17 08:39:10;;;;;;;22.45;12.85;;;;;;;;;;5019970;28;20036;-58
2023/06/17 08:41:39;;;;;;;20.85;12.75;;;;;;;;;;5010184;28;20050;-57
2023/06/17 08:44:06;;;;;;;20.73;11.93;;;;;;;;;;5012332;28;20036;-59
2023/06/17 08:46:33;;;;;;;21.20;12.55;;;;;;;;;;5013949;28;20127;-58
2023/06/17 08:49:00;;;;;;;24.45;12.18;;;;;;;;;;5006924;28;20045;-58
2023/06/17 08:51:27;;;;;;;23.48;12.05;;;;;;;;;;5010685;28;20030;-58
2023/06/17 08:53:55;;;;;;;20.55;11.82;;;;;;;;;;5009841;28;20470;-58
2023/06/17 08:56:21;;;;;;;19.60;12.77;;;;;;;;;;5021607;28;20064;-58
2023/06/17 08:58:49;;;;;;;19.65;12.27;;;;;;;;;;5011125;28;20034;-60
2023/06/17 09:01:17;;;;;;;23.20;13.02;;;;;;;;;;5009007;28;20395;-57
2023/06/17 09:03:45;;;;;;;18.17;11.55;;;;;;;;;;5010914;28;20045;-57
2023/06/17 09:06:37;;;;;;;20.73;12.23;;;;;;;;;;5011117;28;20045;-58
2023/06/17 09:09:03;;;;;;;20.52;11.77;;;;;;;;;;5004320;28;20050;-57
2023/06/17 09:11:31;;;;;;;15.70;10.50;;;;;;;;;;5002241;28;20054;-59
2023/06/17 09:13:59;;;;;;;15.70;10.65;;;;;;;;;;5009687;28;20047;-58
2023/06/17 09:16:30;;;;;;;15.52;10.75;;;;;;;;;;5021030;28;20038;-58
2023/06/17 09:18:59;;;;;;;17.92;11.05;;;;;;;;;;5006711;28;20381;-59
2023/06/17 09:21:26;;;;;;;22.60;12.07;;;;;;;;;;5008941;28;20042;-59
2023/06/17 09:23:56;;;;;;;17.85;11.07;;;;;;;;;;5010323;28;20060;-59
2023/06/17 09:26:25;;;;;;;19.75;11.63;;;;;;;;;;5007105;28;20038;-60
2023/06/17 09:28:51;;;;;;;14.80;9.88;;;;;;;;;;5002374;28;20046;-61
2023/06/17 09:31:18;;;;;;;14.60;9.38;;;;;;;;;;5010126;28;20042;-60
2023/06/17 09:33:45;;;;;;;15.15;10.10;;;;;;;;;;5010400;28;20037;-61
2023/06/17 09:36:11;;;;;;;18.58;11.38;;;;;;;;;;5009692;28;20049;-60
2023/06/17 09:38:38;;;;;;;14.85;8.77;;;;;;;;;;5012338;28;20042;-59
2023/06/17 09:41:05;;;;;;;16.25;9.68;;;;;;;;;;5008898;28;20030;-59
2023/06/17 09:43:31;;;;;;;15.82;9.60;;;;;;;;;;5017465;28;20044;-59
2023/06/17 09:45:59;;;;;;;13.70;9.10;;;;;;;;;;5008239;28;20057;-59
2023/06/17 09:48:32;;;;;;;15.82;8.10;;;;;;;;;;5021377;28;20042;-59
2023/06/17 09:50:59;;;;;;;14.38;8.25;;;;;;;;;;5009534;28;20041;-60
2023/06/17 09:53:29;;;;;;;13.35;8.32;;;;;;;;;;5020688;28;20372;-60
2023/06/17 09:55:57;;;;;;;13.07;8.55;;;;;;;;;;5019666;28;20042;-60
2023/06/17 09:58:29;;;;;;;13.83;8.63;;;;;;;;;;4999411;28;20053;-60
2023/06/17 10:01:00;;;;;;;11.27;8.20;;;;;;;;;;5010049;28;20296;-60
2023/06/17 10:03:27;;;;;;;11.98;8.10;;;;;;;;;;5009610;28;20029;-58
2023/06/17 10:05:59;;;;;;;18.42;8.05;;;;;;;;;;5010495;28;20038;-60
2023/06/17 10:08:28;;;;;;;15.23;8.10;;;;;;;;;;5008814;28;20048;-60
2023/06/17 10:10:58;;;;;;;11.88;7.82;;;;;;;;;;5014959;28;20052;-58
2023/06/17 10:13:26;;;;;;;10.90;8.00;;;;;;;;;;5009013;28;20045;-59
2023/06/17 10:15:54;;;;;;;10.75;6.53;;;;;;;;;;5009601;28;20483;-59
2023/06/17 10:18:22;;;;;;;15.27;7.00;;;;;;;;;;5009417;28;20521;-60
2023/06/17 10:20:50;;;;;;;8.20;6.13;;;;;;;;;;5001102;28;20442;-60
2023/06/17 10:23:19;;;;;;;36.90;31.08;;;;;;;;;;5003423;28;20053;-60
2023/06/17 10:25:45;;;;;;;445.25;402.00;;;;;;;;;;5007370;28;20403;-60
2023/06/17 10:28:14;;;;;;;993.50;776.58;;;;;;;;;;5009162;28;20593;-59
2023/06/17 10:30:42;;;;;;;;;;;;;;;;;;5009867;28;20415;-59
2023/06/17 10:33:08;;;;;;;20.15;14.85;;;;;;;;;;5022927;28;19921;-59
2023/06/17 10:35:44;;;;;;;15.27;13.35;;;;;;;;;;5014680;28;20041;-60
2023/06/17 10:38:29;;;;;;;19.30;13.95;;;;;;;;;;5023367;28;20050;-60
2023/06/17 10:40:56;;;;;;;14.65;11.70;;;;;;;;;;5015459;28;20053;-60
2023/06/17 10:43:23;;;;;;;22.20;14.85;;;;;;;;;;5013375;28;20049;-61
2023/06/17 10:45:52;;;;;;;12.32;10.65;;;;;;;;;;5013172;28;20855;-61
2023/06/17 10:48:28;;;;;;;17.25;12.05;;;;;;;;;;5013183;28;20040;-61
2023/06/17 10:51:03;;;;;;;15.07;10.90;;;;;;;;;;5012595;28;20049;-61
2023/06/17 10:53:31;;;;;;;17.90;11.20;;;;;;;;;;5005470;28;20042;-61
2023/06/17 10:55:58;;;;;;;;;;;;;;;;;;5020471;28;20506;-60
2023/06/17 10:58:31;;;;;;;13.63;10.02;;;;;;;;;;5013280;28;20330;-61
2023/06/17 11:01:06;;;;;;;11.15;8.15;;;;;;;;;;5011922;28;20056;-60
2023/06/17 11:03:33;;;;;;;12.35;8.15;;;;;;;;;;5004439;28;20037;-61
2023/06/17 11:06:06;;;;;;;12.95;9.75;;;;;;;;;;5013620;28;20057;-60
2023/06/17 11:08:34;;;;;;;12.05;8.48;;;;;;;;;;5021038;28;20042;-61
2023/06/17 11:11:11;;;;;;;13.48;9.43;;;;;;;;;;5011446;28;20042;-60
2023/06/17 11:13:39;;;;;;;12.60;9.05;;;;;;;;;;5011494;28;20038;-60
2023/06/17 11:16:06;;;;;;;15.60;10.68;;;;;;;;;;5011716;28;20034;-62
2023/06/17 11:18:36;;;;;;;15.70;8.93;;;;;;;;;;5022756;28;20038;-61
2023/06/17 11:21:06;;;;;;;10.45;8.30;;;;;;;;;;5005576;28;20033;-61
2023/06/17 11:23:34;;;;;;;13.60;8.93;;;;;;;;;;5011447;28;20049;-61
2023/06/17 11:26:01;;;;;;;13.30;10.33;;;;;;;;;;5011178;28;20049;-63
2023/06/17 11:28:29;;;;;;;13.60;9.93;;;;;;;;;;5009839;28;20038;-61
2023/06/17 11:30:56;;;;;;;12.27;9.27;;;;;;;;;;5011704;28;20048;-61
2023/06/17 11:33:22;;;;;;;12.25;9.13;;;;;;;;;;5016776;28;20041;-61
2023/06/17 11:35:51;;;;;;;12.15;9.20;;;;;;;;;;5002427;28;20038;-62
2023/06/17 11:38:18;;;;;;;12.38;9.15;;;;;;;;;;5016171;28;20619;-60
2023/06/17 11:40:45;;;;;;;11.88;9.55;;;;;;;;;;5012743;28;20050;-61
2023/06/17 11:43:11;;;;;;;12.80;9.30;;;;;;;;;;5010697;28;20038;-62
2023/06/17 11:45:37;;;;;;;13.43;9.10;;;;;;;;;;5015539;28;20035;-62
2023/06/17 11:48:06;;;;;;;15.98;9.55;;;;;;;;;;5011421;28;20053;-62
2023/06/17 11:50:35;;;;;;;13.52;9.75;;;;;;;;;;5010433;28;20048;-61
2023/06/17 11:53:02;;;;;;;15.38;10.25;;;;;;;;;;5003569;28;20484;-61
2023/06/17 11:55:34;;;;;;;14.88;10.43;;;;;;;;;;5020526;28;20044;-61
2023/06/17 11:58:02;;;;;;;15.43;9.93;;;;;;;;;;5011279;28;20034;-61
2023/06/17 12:00:29;;;;;;;15.80;10.80;;;;;;;;;;5011301;28;20049;-61
2023/06/17 12:02:57;;;;;;;15.27;10.50;;;;;;;;;;5010419;28;20037;-61
2023/06/17 12:05:33;;;;;;;16.80;10.52;;;;;;;;;;5011432;28;20038;-61
2023/06/17 12:08:01;;;;;;;16.40;10.35;;;;;;;;;;4971426;28;1166176;-61
2023/06/17 12:10:27;;;;;;;13.88;10.70;;;;;;;;;;5012517;28;20042;-62
2023/06/17 12:12:58;;;;;;;16.00;10.63;;;;;;;;;;5011550;28;20045;-61
2023/06/17 12:15:28;;;;;;;18.00;10.70;;;;;;;;;;5022664;28;20037;-61
2023/06/17 12:17:56;;;;;;;16.90;11.02;;;;;;;;;;5011607;28;20046;-62
2023/06/17 12:20:22;;;;;;;14.37;10.40;;;;;;;;;;5001334;28;20030;-61
2023/06/17 12:22:50;;;;;;;15.63;10.07;;;;;;;;;;4994787;28;20050;-61
2023/06/17 12:25:17;;;;;;;14.23;10.27;;;;;;;;;;5006311;28;20042;-61
2023/06/17 12:27:43;;;;;;;19.42;10.90;;;;;;;;;;5002458;28;20038;-59
2023/06/17 12:30:10;;;;;;;18.13;11.65;;;;;;;;;;5011217;28;20045;-61
2023/06/17 12:32:39;;;;;;;19.52;12.10;;;;;;;;;;5021071;28;20045;-62
2023/06/17 12:35:06;;;;;;;17.17;11.80;;;;;;;;;;5025168;28;20515;-60
2023/06/17 12:37:33;;;;;;;16.48;10.68;;;;;;;;;;5014089;28;20037;-61
2023/06/17 12:40:03;;;;;;;18.48;11.52;;;;;;;;;;5017367;28;20045;-61
2023/06/17 12:42:30;;;;;;;18.60;11.25;;;;;;;;;;5010997;28;20034;-61
2023/06/17 12:44:56;;;;;;;19.52;11.05;;;;;;;;;;5011524;28;20049;-61
2023/06/17 12:47:23;;;;;;;19.98;11.55;;;;;;;;;;5012737;28;20048;-61
2023/06/17 12:49:49;;;;;;;17.30;11.20;;;;;;;;;;5019424;28;20038;-61
2023/06/17 12:52:16;;;;;;;19.83;11.27;;;;;;;;;;5015236;28;20045;-61
2023/06/17 12:54:43;;;;;;;15.55;11.13;;;;;;;;;;5005843;28;20037;-61
2023/06/17 12:57:10;;;;;;;15.90;11.50;;;;;;;;;;5011434;28;20038;-61
2023/06/17 12:59:37;;;;;;;19.42;10.95;;;;;;;;;;5010868;28;20415;-62
2023/06/17 13:02:03;;;;;;;20.10;11.10;;;;;;;;;;5010275;28;20030;-62
2023/06/17 13:04:29;;;;;;;15.93;10.40;;;;;;;;;;5010549;28;20381;-62
2023/06/17 13:06:57;;;;;;;19.30;11.75;;;;;;;;;;5021559;28;20045;-62
2023/06/17 13:09:23;;;;;;;18.73;12.33;;;;;;;;;;5011209;28;20042;-61
2023/06/17 13:11:50;;;;;;;21.88;11.73;;;;;;;;;;5010066;28;20050;-61
2023/06/17 13:14:18;;;;;;;19.52;11.95;;;;;;;;;;5015635;28;20046;-62
2023/06/17 13:16:45;;;;;;;19.38;12.05;;;;;;;;;;5010702;28;20030;-61
2023/06/17 13:19:12;;;;;;;20.58;12.02;;;;;;;;;;5010865;28;20050;-62
2023/06/17 13:21:38;;;;;;;18.45;11.68;;;;;;;;;;5010378;28;20044;-61
2023/06/17 13:24:05;;;;;;;19.70;11.95;;;;;;;;;;5021706;28;20044;-62
2023/06/17 13:26:32;;;;;;;19.30;11.93;;;;;;;;;;5010362;28;20030;-62
2023/06/17 13:29:01;;;;;;;19.20;11.77;;;;;;;;;;5010353;28;20034;-63
2023/06/17 13:31:28;;;;;;;17.40;11.45;;;;;;;;;;5018449;28;20048;-63
2023/06/17 13:33:56;;;;;;;19.48;12.23;;;;;;;;;;5012021;28;20040;-62
2023/06/17 13:36:22;;;;;;;19.77;12.63;;;;;;;;;;5008822;28;20431;-62
2023/06/17 13:38:48;;;;;;;20.90;12.25;;;;;;;;;;5017406;28;20049;-62
2023/06/17 13:41:15;;;;;;;21.25;12.90;;;;;;;;;;5014014;28;20052;-62
2023/06/17 13:43:41;;;;;;;19.33;12.43;;;;;;;;;;5009119;28;20064;-62
2023/06/17 13:46:07;;;;;;;21.60;12.88;;;;;;;;;;5010084;28;20045;-62
2023/06/17 13:48:34;;;;;;;19.30;12.30;;;;;;;;;;5010418;28;20659;-62
2023/06/17 13:51:02;;;;;;;20.02;12.48;;;;;;;;;;5010740;28;20405;-62
2023/06/17 13:53:31;;;;;;;21.90;12.63;;;;;;;;;;5009493;28;20046;-62
2023/06/17 13:55:58;;;;;;;20.48;12.57;;;;;;;;;;5010488;28;20041;-62
2023/06/17 13:58:25;;;;;;;21.07;12.50;;;;;;;;;;5010495;28;20058;-62
2023/06/17 14:00:51;;;;;;;21.88;13.25;;;;;;;;;;5008464;28;20042;-62
2023/06/17 14:03:18;;;;;;;24.30;13.77;;;;;;;;;;5015656;28;20038;-62
2023/06/17 14:05:44;;;;;;;23.65;13.98;;;;;;;;;;5010384;28;20399;-63
2023/06/17 14:08:13;;;;;;;23.10;13.75;;;;;;;;;;5001528;28;20064;-63
2023/06/17 14:10:39;;;;;;;23.08;13.02;;;;;;;;;;5015518;28;20040;-63
2023/06/17 14:13:05;;;;;;;20.90;13.15;;;;;;;;;;5014160;28;20042;-63
2023/06/17 14:15:32;;;;;;;25.80;13.32;;;;;;;;;;5004428;28;20046;-63
2023/06/17 14:17:58;;;;;;;25.08;14.10;;;;;;;;;;4995082;28;20030;-63
2023/06/17 14:20:24;;;;;;;26.83;14.27;;;;;;;;;;4994006;28;20479;-63
2023/06/17 14:22:56;;;;;;;21.33;13.07;;;;;;;;;;4997719;28;20045;-62
2023/06/17 14:25:24;;;;;;;21.10;13.27;;;;;;;;;;4996562;28;20053;-62
2023/06/17 14:27:51;;;;;;;22.95;13.65;;;;;;;;;;5000847;28;20034;-63
2023/06/17 14:30:18;;;;;;;20.33;13.15;;;;;;;;;;4995473;28;20042;-63
2023/06/17 14:32:46;;;;;;;22.92;12.82;;;;;;;;;;4994288;28;20050;-63